createdAt,value
2019-05-06T00:01:24.225Z,0.85
2019-05-06T00:03:51.086Z,0.90
2019-05-06T00:06:17.954Z,1.00
2019-05-06T00:08:44.817Z,0.95
2019-05-06T00:11:11.690Z,0.82
2019-05-06T00:13:39.641Z,0.85
2019-05-06T00:16:06.736Z,1.45
2019-05-06T00:18:34.278Z,0.88
2019-05-06T00:21:00.962Z,0.90
2019-05-06T00:23:38.100Z,0.60
2019-05-06T00:26:18.806Z,0.70
2019-05-06T00:28:47.335Z,0.80
2019-05-06T00:31:16.550Z,0.90
2019-05-06T00:33:44.392Z,0.80
2019-05-06T00:36:11.038Z,0.60
2019-05-06T00:38:39.137Z,0.68
2019-05-06T00:41:16.563Z,0.60
2019-05-06T00:43:43.717Z,0.70
2019-05-06T00:46:10.166Z,0.93
2019-05-06T00:48:36.612Z,1.05
2019-05-06T00:51:04.557Z,0.93
2019-05-06T00:53:34.699Z,0.68
2019-05-06T00:56:01.302Z,0.60
2019-05-06T00:58:27.769Z,0.70
2019-05-06T01:00:54.185Z,0.85
2019-05-06T01:03:20.798Z,0.80
2019-05-06T01:05:47.162Z,0.90
2019-05-06T01:08:14.162Z,1.10
2019-05-06T01:10:40.632Z,1.20
2019-05-06T01:13:08.898Z,1.20
2019-05-06T01:18:01.626Z,0.75
2019-05-06T01:20:28.490Z,0.93
2019-05-06T01:22:54.855Z,0.80
2019-05-06T01:25:21.254Z,0.53
2019-05-06T01:27:47.639Z,1.07
2019-05-06T01:30:16.179Z,0.90
2019-05-06T01:32:43.739Z,1.07
2019-05-06T01:35:10.814Z,0.90
2019-05-06T01:37:38.175Z,0.80
2019-05-06T01:40:16.776Z,1.07
2019-05-06T01:42:51.074Z,0.80
2019-05-06T01:45:17.555Z,1.00
2019-05-06T01:47:43.909Z,0.90
2019-05-06T01:50:10.268Z,1.10
2019-05-06T01:52:36.637Z,0.95
2019-05-06T01:55:05.405Z,0.93
2019-05-06T01:57:33.681Z,0.80
2019-05-06T02:02:26.598Z,0.90
2019-05-06T02:04:54.110Z,0.80
2019-05-06T02:07:20.645Z,0.72
2019-05-06T02:09:47.014Z,1.10
2019-05-06T02:12:13.789Z,0.80
2019-05-06T02:14:40.258Z,0.95
2019-05-06T02:17:06.626Z,0.90
2019-05-06T02:19:34.754Z,0.90
2019-05-06T02:22:06.483Z,0.70
2019-05-06T02:24:40.791Z,0.97
2019-05-06T02:27:07.254Z,0.85
2019-05-06T02:29:38.334Z,0.98
2019-05-06T02:32:30.177Z,1.00
2019-05-06T02:34:54.543Z,1.00
2019-05-06T02:37:28.980Z,0.80
2019-05-06T02:39:55.355Z,0.80
2019-05-06T02:42:23.884Z,1.00
2019-05-06T02:44:49.874Z,1.00
2019-05-06T02:47:24.965Z,0.90
2019-05-06T02:49:53.656Z,1.15
2019-05-06T02:52:22.718Z,1.00
2019-05-06T02:54:48.313Z,0.88
2019-05-06T02:57:14.659Z,0.72
2019-05-06T02:59:43.946Z,0.90
2019-05-06T03:04:35.509Z,0.70
2019-05-06T03:07:03.694Z,0.88
2019-05-06T03:09:30.081Z,0.93
2019-05-06T03:11:56.426Z,0.88
2019-05-06T03:14:23.597Z,0.60
2019-05-06T03:16:53.405Z,0.90
2019-05-06T03:21:46.871Z,1.12
2019-05-06T03:26:44.211Z,1.20
2019-05-06T03:29:13.508Z,1.07
2019-05-06T03:31:38.771Z,1.02
2019-05-06T03:34:26.364Z,1.22
2019-05-06T03:36:40.344Z,1.15
2019-05-06T03:41:33.787Z,0.85
2019-05-06T03:43:59.653Z,1.10
2019-05-06T03:46:27.928Z,1.10
2019-05-06T03:51:34.702Z,0.90
2019-05-06T03:54:03.428Z,1.20
2019-05-06T03:56:33.704Z,0.90
2019-05-06T03:58:58.570Z,0.90
2019-05-06T04:01:25.447Z,0.93
2019-05-06T04:03:56.066Z,0.95
2019-05-06T04:08:48.030Z,1.02
2019-05-06T04:11:16.404Z,1.30
2019-05-06T04:13:45.142Z,1.07
2019-05-06T04:16:13.977Z,1.32
2019-05-06T04:18:45.211Z,1.05
2019-05-06T04:21:16.937Z,1.00
2019-05-06T04:23:45.390Z,1.37
2019-05-06T04:26:14.870Z,1.45
2019-05-06T04:28:43.520Z,1.40
2019-05-06T04:31:13.140Z,1.30
2019-05-06T04:36:04.669Z,1.55
2019-05-06T04:38:33.715Z,1.07
2019-05-06T04:41:02.729Z,1.27
2019-05-06T04:43:29.592Z,1.30
2019-05-06T04:45:56.057Z,1.53
2019-05-06T04:48:23.792Z,1.30
2019-05-06T04:50:53.340Z,1.35
2019-05-06T04:55:45.042Z,1.50
2019-05-06T04:58:13.460Z,1.70
2019-05-06T05:00:39.605Z,1.65
2019-05-06T05:03:06.069Z,1.20
2019-05-06T05:05:33.379Z,1.32
2019-05-06T05:08:02.300Z,1.70
2019-05-06T05:13:18.200Z,1.45
2019-05-06T05:16:02.357Z,1.20
2019-05-06T05:18:45.912Z,1.52
2019-05-06T05:21:12.268Z,1.47
2019-05-06T05:23:39.036Z,1.77
2019-05-06T05:26:05.520Z,1.27
2019-05-06T05:28:32.179Z,1.10
2019-05-06T05:30:58.854Z,1.22
2019-05-06T05:33:25.346Z,1.32
2019-05-06T05:35:52.593Z,1.02
2019-05-06T05:38:19.265Z,1.50
2019-05-06T05:40:45.845Z,1.52
2019-05-06T05:43:19.651Z,1.22
2019-05-06T05:45:46.529Z,1.20
2019-05-06T05:48:17.817Z,1.40
2019-05-06T05:50:44.462Z,1.20
2019-05-06T05:53:12.079Z,1.42
2019-05-06T05:55:38.605Z,1.72
2019-05-06T05:58:05.174Z,1.35
2019-05-06T06:00:33.453Z,1.37
2019-05-06T06:05:26.174Z,1.22
2019-05-06T06:07:53.104Z,1.37
2019-05-06T06:10:39.504Z,1.47
2019-05-06T06:13:06.058Z,1.52
2019-05-06T06:15:37.042Z,1.40
2019-05-06T06:18:08.046Z,1.47
2019-05-06T06:20:48.833Z,1.80
2019-05-06T06:23:17.782Z,1.32
2019-05-06T06:25:44.415Z,1.67
2019-05-06T06:28:11.973Z,1.92
2019-05-06T06:30:42.290Z,2.58
2019-05-06T06:33:08.452Z,2.05
2019-05-06T06:35:42.768Z,1.70
2019-05-06T06:38:12.361Z,1.98
2019-05-06T06:40:38.957Z,1.45
2019-05-06T06:43:07.101Z,1.37
2019-05-06T06:45:33.845Z,1.55
2019-05-06T06:48:00.186Z,1.30
2019-05-06T06:50:26.546Z,1.70
2019-05-06T06:52:52.993Z,1.47
2019-05-06T06:55:19.435Z,1.50
2019-05-06T06:57:51.911Z,2.85
2019-05-06T07:00:23.045Z,1.32
2019-05-06T07:02:52.507Z,1.20
2019-05-06T07:05:28.073Z,1.45
2019-05-06T07:07:53.151Z,1.30
2019-05-06T07:10:38.582Z,1.00
2019-05-06T07:13:04.922Z,1.07
2019-05-06T07:15:33.427Z,1.00
2019-05-06T07:17:59.317Z,1.20
2019-05-06T07:20:33.854Z,1.17
2019-05-06T07:23:02.028Z,0.93
2019-05-06T07:27:54.544Z,1.25
2019-05-06T07:30:23.070Z,1.05
2019-05-06T07:32:49.424Z,1.35
2019-05-06T07:35:15.666Z,1.50
2019-05-06T07:37:42.397Z,1.20
2019-05-06T07:40:09.364Z,1.00
2019-05-06T07:42:37.666Z,2.10
2019-05-06T07:45:17.637Z,1.30
2019-05-06T07:47:45.985Z,0.80
2019-05-06T07:50:13.116Z,1.00
2019-05-06T07:52:42.178Z,0.70
2019-05-06T07:55:08.845Z,0.68
2019-05-06T07:57:35.090Z,0.85
2019-05-06T08:00:03.297Z,0.70
2019-05-06T08:02:31.970Z,0.57
2019-05-06T08:04:58.212Z,0.40
2019-05-06T08:07:24.471Z,0.60
2019-05-06T08:09:52.818Z,0.60
2019-05-06T08:12:22.059Z,0.60
2019-05-06T08:14:47.658Z,0.85
2019-05-06T08:17:16.212Z,0.73
2019-05-06T08:19:42.547Z,0.65
2019-05-06T08:22:13.310Z,0.82
2019-05-06T08:24:39.539Z,0.85
2019-05-06T08:27:05.781Z,0.78
2019-05-06T08:29:33.058Z,0.88
2019-05-06T08:31:59.489Z,0.70
2019-05-06T08:34:25.733Z,0.63
2019-05-06T08:36:53.961Z,0.60
2019-05-06T08:39:22.016Z,0.60
2019-05-06T08:44:14.489Z,0.53
2019-05-06T08:46:42.815Z,0.70
2019-05-06T08:49:08.834Z,0.57
2019-05-06T08:51:36.977Z,0.88
2019-05-06T08:56:49.309Z,0.60
2019-05-06T08:59:15.525Z,0.70
2019-05-06T09:01:43.649Z,0.90
2019-05-06T09:09:06.126Z,0.40
2019-05-06T09:11:34.553Z,0.40
2019-05-06T09:14:03.458Z,0.78
2019-05-06T09:16:30.044Z,0.60
2019-05-06T09:18:56.470Z,0.88
2019-05-06T09:21:22.867Z,0.68
2019-05-06T09:23:52.884Z,1.00
2019-05-06T09:26:22.341Z,0.60
2019-05-06T09:28:54.321Z,0.78
2019-05-06T09:31:25.477Z,0.50
2019-05-06T09:33:56.349Z,0.60
2019-05-06T09:36:22.995Z,0.70
2019-05-06T09:38:49.293Z,0.30
2019-05-06T09:41:15.586Z,1.00
2019-05-06T09:43:43.374Z,0.60
2019-05-06T09:46:09.845Z,0.50
2019-05-06T09:48:52.598Z,0.90
2019-05-06T09:51:18.584Z,0.68
2019-05-06T09:54:04.114Z,0.50
2019-05-06T09:56:35.354Z,0.50
2019-05-06T09:59:02.186Z,0.60
2019-05-06T10:01:28.763Z,0.30
2019-05-06T10:03:55.405Z,0.42
2019-05-06T10:06:22.284Z,0.53
2019-05-06T10:08:48.645Z,0.50
2019-05-06T10:11:15.090Z,0.40
2019-05-06T10:13:43.131Z,0.40
2019-05-06T10:16:12.972Z,0.47
2019-05-06T10:18:39.339Z,0.50
2019-05-06T10:21:05.925Z,0.40
2019-05-06T10:23:32.782Z,0.50
2019-05-06T10:25:59.169Z,0.57
2019-05-06T10:28:45.628Z,0.30
2019-05-06T10:31:13.755Z,0.42
2019-05-06T10:36:12.974Z,0.30
2019-05-06T10:41:17.125Z,0.35
2019-05-06T10:43:53.297Z,0.42
2019-05-06T10:46:19.593Z,0.40
2019-05-06T10:48:45.817Z,0.50
2019-05-06T10:51:22.992Z,0.37
2019-05-06T10:56:27.609Z,0.50
2019-05-06T10:58:54.029Z,0.70
2019-05-06T11:01:28.037Z,0.62
2019-05-06T11:03:54.368Z,0.50
2019-05-06T11:06:22.119Z,0.50
2019-05-06T11:08:49.492Z,0.40
2019-05-06T11:11:31.233Z,0.40
2019-05-06T11:13:43.838Z,0.50
2019-05-06T11:16:10.054Z,0.50
2019-05-06T11:18:36.425Z,0.30
2019-05-06T11:21:03.526Z,0.20
2019-05-06T11:23:30.041Z,0.40
2019-05-06T11:25:56.276Z,0.55
2019-05-06T11:28:42.669Z,0.40
2019-05-06T11:31:13.952Z,0.42
2019-05-06T11:33:42.480Z,0.70
2019-05-06T11:36:29.056Z,0.37
2019-05-06T11:38:55.261Z,0.50
2019-05-06T11:41:23.346Z,0.40
2019-05-06T11:46:15.917Z,0.37
2019-05-06T11:48:43.178Z,0.40
2019-05-06T11:51:12.772Z,0.33
2019-05-06T11:53:39.148Z,0.40
2019-05-06T11:56:05.357Z,0.30
2019-05-06T11:58:48.444Z,0.60
2019-05-06T12:01:32.924Z,0.40
2019-05-06T12:03:59.371Z,0.40
2019-05-06T12:06:25.749Z,0.40
2019-05-06T12:08:52.407Z,0.50
2019-05-06T12:11:19.085Z,0.37
2019-05-06T12:13:45.296Z,0.30
2019-05-06T12:16:14.073Z,0.40
2019-05-06T12:18:42.096Z,0.30
2019-05-06T12:21:11.699Z,0.30
2019-05-06T12:23:36.002Z,0.60
2019-05-06T12:26:02.636Z,0.30
2019-05-06T12:28:28.937Z,0.40
2019-05-06T12:30:55.149Z,0.55
2019-05-06T12:33:28.932Z,0.50
2019-05-06T12:35:57.349Z,0.42
2019-05-06T12:38:30.253Z,0.50
2019-05-06T12:40:54.733Z,0.37
2019-05-06T12:43:22.853Z,0.40
2019-05-06T12:45:53.753Z,0.37
2019-05-06T12:48:24.942Z,0.37
2019-05-06T12:50:52.494Z,0.50
2019-05-06T12:53:19.049Z,0.50
2019-05-06T12:55:45.374Z,0.30
2019-05-06T12:58:13.649Z,0.50
2019-05-06T13:00:40.213Z,0.70
2019-05-06T13:03:06.443Z,0.40
2019-05-06T13:05:33.166Z,0.57
2019-05-06T13:07:59.395Z,0.40
2019-05-06T13:10:25.725Z,0.50
2019-05-06T13:12:54.276Z,0.40
2019-05-06T13:15:24.117Z,0.30
2019-05-06T13:17:48.901Z,0.62
2019-05-06T13:20:15.222Z,0.50
2019-05-06T13:22:43.542Z,0.50
2019-05-06T13:30:05.357Z,0.30
2019-05-06T13:32:33.703Z,0.50
2019-05-06T13:37:28.026Z,0.42
2019-05-06T13:39:54.407Z,0.50
2019-05-06T13:42:22.865Z,0.70
2019-05-06T13:44:49.285Z,0.50
2019-05-06T13:47:17.418Z,0.50
2019-05-06T13:49:45.529Z,0.60
2019-05-06T13:52:12.673Z,0.40
2019-05-06T13:54:39.199Z,0.43
2019-05-06T13:57:05.597Z,0.50
2019-05-06T13:59:34.717Z,0.35
2019-05-06T14:02:08.425Z,0.40
2019-05-06T14:04:34.859Z,0.50
2019-05-06T14:07:03.450Z,0.50
2019-05-06T14:09:34.582Z,0.55
2019-05-06T14:11:57.333Z,0.40
2019-05-06T14:14:23.545Z,0.40
2019-05-06T14:16:49.782Z,0.50
2019-05-06T14:19:16.100Z,0.50
2019-05-06T14:21:43.120Z,0.30
2019-05-06T14:26:57.717Z,0.55
2019-05-06T14:29:25.140Z,0.60
2019-05-06T14:31:55.704Z,0.50
2019-05-06T14:34:22.971Z,0.75
2019-05-06T14:36:49.461Z,0.40
2019-05-06T14:39:17.570Z,0.55
2019-05-06T14:41:45.715Z,0.75
2019-05-06T14:44:12.256Z,0.53
2019-05-06T14:46:43.612Z,0.40
2019-05-06T14:49:09.837Z,0.60
2019-05-06T14:51:36.069Z,0.70
2019-05-06T14:54:02.354Z,0.40
2019-05-06T14:56:33.250Z,0.40
2019-05-06T14:59:02.709Z,0.40
2019-05-06T15:01:28.915Z,0.57
2019-05-06T15:03:55.127Z,0.60
2019-05-06T15:06:22.334Z,0.60
2019-05-06T15:08:48.667Z,0.53
2019-05-06T15:11:14.978Z,0.33
2019-05-06T15:13:42.681Z,0.90
2019-05-06T15:16:09.165Z,0.78
2019-05-06T15:18:35.393Z,0.70
2019-05-06T15:21:30.087Z,0.40
2019-05-06T15:23:33.456Z,0.45
2019-05-06T15:25:59.741Z,0.70
2019-05-06T15:28:27.077Z,0.53
2019-05-06T15:31:03.163Z,0.70
2019-05-06T15:33:32.812Z,0.70
2019-05-06T15:36:02.386Z,0.50
2019-05-06T15:38:30.346Z,0.55
2019-05-06T15:40:56.594Z,0.80
2019-05-06T15:43:22.901Z,0.70
2019-05-06T15:45:52.054Z,1.00
2019-05-06T15:48:18.365Z,1.00
2019-05-06T15:50:45.979Z,0.53
2019-05-06T15:53:12.610Z,0.57
2019-05-06T15:55:38.962Z,0.78
2019-05-06T15:58:05.233Z,0.60
2019-05-06T16:00:33.122Z,0.40
2019-05-06T16:02:59.577Z,0.50
2019-05-06T16:05:26.661Z,0.68
2019-05-06T16:07:53.234Z,0.80
2019-05-06T16:10:22.390Z,0.53
2019-05-06T16:12:48.681Z,0.85
2019-05-06T16:15:16.183Z,0.90
2019-05-06T16:17:42.756Z,0.65
2019-05-06T16:20:09.840Z,0.70
2019-05-06T16:22:36.141Z,0.50
2019-05-06T16:25:13.265Z,0.70
2019-05-06T16:27:43.569Z,0.50
2019-05-06T16:30:08.605Z,0.70
2019-05-06T16:32:34.953Z,0.78
2019-05-06T16:35:01.245Z,0.60
2019-05-06T16:37:27.466Z,0.40
2019-05-06T16:39:54.604Z,0.65
2019-05-06T16:42:22.495Z,0.60
2019-05-06T16:44:48.933Z,0.40
2019-05-06T16:47:17.074Z,0.50
2019-05-06T16:49:43.301Z,0.70
2019-05-06T16:52:09.513Z,0.80
2019-05-06T16:54:35.745Z,0.78
2019-05-06T16:57:06.621Z,0.50
2019-05-06T16:59:33.546Z,0.47
2019-05-06T17:02:01.962Z,0.50
2019-05-06T17:04:38.885Z,0.60
2019-05-06T17:07:05.125Z,0.65
2019-05-06T17:09:32.750Z,0.40
2019-05-06T17:11:59.460Z,0.60
2019-05-06T17:14:25.684Z,0.45
2019-05-06T17:16:52.691Z,0.60
2019-05-06T17:19:19.149Z,0.50
2019-05-06T17:21:48.213Z,0.62
2019-05-06T17:24:13.506Z,0.70
2019-05-06T17:26:39.914Z,1.00
2019-05-06T17:29:08.036Z,0.37
2019-05-06T17:31:52.845Z,0.55
2019-05-06T17:34:20.976Z,0.47
2019-05-06T17:36:48.085Z,0.65
2019-05-06T17:39:14.302Z,0.60
2019-05-06T17:41:48.357Z,0.53
2019-05-06T17:44:11.907Z,0.60
2019-05-06T17:46:56.557Z,0.60
2019-05-06T17:49:30.809Z,0.60
2019-05-06T17:52:04.876Z,1.00
2019-05-06T17:54:32.449Z,0.90
2019-05-06T17:57:01.713Z,0.88
2019-05-06T17:59:27.238Z,0.65
2019-05-06T18:01:55.346Z,0.70
2019-05-06T18:04:22.738Z,0.80
2019-05-06T18:06:49.256Z,0.68
2019-05-06T18:09:15.473Z,1.12
2019-05-06T18:11:57.125Z,0.70
2019-05-06T18:14:12.338Z,0.80
2019-05-06T18:16:39.200Z,0.65
2019-05-06T18:19:06.062Z,1.05
2019-05-06T18:21:32.573Z,0.80
2019-05-06T18:23:58.808Z,0.93
2019-05-06T18:26:25.125Z,0.70
2019-05-06T18:28:52.691Z,0.60
2019-05-06T18:31:19.185Z,0.50
2019-05-06T18:33:45.426Z,0.50
2019-05-06T18:36:13.085Z,0.50
2019-05-06T18:38:39.487Z,0.90
2019-05-06T18:41:05.697Z,0.70
2019-05-06T18:43:33.194Z,0.80
2019-05-06T18:46:02.623Z,0.78
2019-05-06T18:50:56.329Z,0.72
2019-05-06T18:53:22.680Z,0.55
2019-05-06T18:55:48.965Z,0.82
2019-05-06T18:58:15.209Z,0.90
2019-05-06T19:00:43.619Z,0.90
2019-05-06T19:05:42.707Z,0.68
2019-05-06T19:08:27.241Z,0.90
2019-05-06T19:10:53.573Z,0.75
2019-05-06T19:13:19.785Z,1.17
2019-05-06T19:15:46.007Z,0.60
2019-05-06T19:18:12.907Z,0.70
2019-05-06T19:20:39.502Z,0.90
2019-05-06T19:23:06.925Z,0.70
2019-05-06T19:25:34.648Z,0.90
2019-05-06T19:28:02.211Z,0.70
2019-05-06T19:30:28.605Z,0.70
2019-05-06T19:32:54.841Z,0.50
2019-05-06T19:35:21.068Z,0.70
2019-05-06T19:37:47.379Z,0.95
2019-05-06T19:40:13.801Z,0.60
2019-05-06T19:42:47.064Z,0.85
2019-05-06T19:45:08.541Z,0.70
2019-05-06T19:47:34.989Z,0.57
2019-05-06T19:50:02.822Z,0.75
2019-05-06T19:52:32.470Z,0.68
2019-05-06T19:54:58.705Z,0.75
2019-05-06T19:57:24.940Z,1.10
2019-05-06T19:59:52.130Z,1.10
2019-05-06T20:02:18.503Z,1.30
2019-05-06T20:04:46.815Z,1.70
2019-05-06T20:09:52.212Z,1.30
2019-05-06T20:12:25.937Z,1.12
2019-05-06T20:14:54.162Z,1.05
2019-05-06T20:17:22.301Z,1.05
2019-05-06T20:22:14.813Z,1.42
2019-05-06T20:24:42.633Z,1.50
2019-05-06T20:27:09.044Z,1.95
2019-05-06T20:29:38.171Z,1.50
2019-05-06T20:34:31.921Z,1.87
2019-05-06T20:36:57.801Z,1.17
2019-05-06T20:39:24.126Z,1.32
2019-05-06T20:41:50.391Z,1.42
2019-05-06T20:44:16.721Z,1.25
2019-05-06T20:46:43.014Z,1.22
2019-05-06T20:49:09.250Z,1.55
2019-05-06T20:51:35.477Z,1.50
2019-05-06T20:54:01.697Z,1.50
2019-05-06T20:56:27.929Z,1.55
2019-05-06T20:58:54.153Z,1.42
2019-05-06T21:01:21.858Z,1.55
2019-05-06T21:03:48.221Z,1.62
2019-05-06T21:06:14.473Z,1.22
2019-05-06T21:08:42.172Z,1.60
2019-05-06T21:11:22.600Z,1.30
2019-05-06T21:13:36.821Z,1.07
2019-05-06T21:16:03.048Z,1.32
2019-05-06T21:18:29.277Z,1.32
2019-05-06T21:20:55.630Z,1.20
2019-05-06T21:23:22.804Z,1.32
2019-05-06T21:25:49.175Z,1.17
2019-05-06T21:28:15.425Z,1.40
2019-05-06T21:30:42.894Z,1.10
2019-05-06T21:33:09.371Z,1.37
2019-05-06T21:35:35.710Z,1.07
2019-05-06T21:38:02.610Z,0.98
2019-05-06T21:40:29.221Z,1.47
2019-05-06T21:42:55.553Z,1.15
2019-05-06T21:45:22.213Z,1.25
2019-05-06T21:47:48.594Z,1.27
2019-05-06T21:50:14.821Z,1.42
2019-05-06T21:52:43.070Z,1.20
2019-05-06T21:57:35.990Z,1.00
2019-05-06T22:00:09.819Z,0.98
2019-05-06T22:02:38.255Z,1.10
2019-05-06T22:05:06.260Z,1.10
2019-05-06T22:07:35.611Z,1.00
2019-05-06T22:12:26.981Z,0.90
2019-05-06T22:14:53.209Z,1.00
2019-05-06T22:17:22.454Z,1.00
2019-05-06T22:19:48.581Z,1.05
2019-05-06T22:22:16.708Z,1.00
2019-05-06T22:24:47.841Z,0.90
2019-05-06T22:27:14.460Z,1.42
2019-05-06T22:29:42.603Z,1.30
2019-05-06T22:32:08.933Z,1.55
2019-05-06T22:34:35.240Z,2.20
2019-05-06T22:37:03.314Z,1.50
2019-05-06T22:41:55.786Z,1.07
2019-05-06T22:44:22.809Z,0.90
2019-05-06T22:46:49.234Z,1.02
2019-05-06T22:49:15.457Z,1.10
2019-05-06T22:51:42.584Z,1.02
2019-05-06T22:54:08.926Z,1.27
2019-05-06T22:56:35.128Z,0.80
2019-05-06T22:59:03.296Z,0.93
2019-05-06T23:01:32.496Z,0.68
2019-05-06T23:03:59.142Z,0.60
2019-05-06T23:06:25.366Z,0.90
2019-05-06T23:08:52.667Z,0.78
2019-05-06T23:11:19.017Z,0.80
2019-05-06T23:13:45.221Z,0.62
2019-05-06T23:16:12.873Z,0.60
2019-05-06T23:18:39.257Z,0.88
2019-05-06T23:21:05.469Z,0.78
2019-05-06T23:23:32.920Z,0.60
2019-05-06T23:26:19.564Z,0.90
2019-05-06T23:28:46.311Z,0.60
2019-05-06T23:31:12.609Z,0.55
2019-05-06T23:33:38.824Z,0.80
2019-05-06T23:36:06.186Z,0.50
2019-05-06T23:39:10.020Z,0.70
2019-05-06T23:42:13.873Z,0.68
2019-05-06T23:45:17.619Z,0.40
2019-05-06T23:48:22.862Z,0.50
2019-05-06T23:51:27.901Z,0.50
2019-05-06T23:54:32.817Z,0.55
2019-05-06T23:56:59.017Z,0.60
2019-05-06T23:59:25.230Z,0.65
